Time;durP1;ratioP1;P1;durP2;ratioP2;P2;SDS_P1;SDS_P2;PMS_P1;PMS_P2;Temp;Humidity;BMP_temperature;BMP_pressure;BME280_temperature;BME280_humidity;BME280_pressure;Samples;Min_cycle;Max_cycle;Signal;HPM_P1;HPM_P2
2023/09/18 00:00:00;;;;;;;;;;;20.30;71.50;;;;;;5111482;28;20022;-70
2023/09/18 00:02:26;;;;;;;;;;;20.30;71.50;;;;;;5111553;28;19927;-68
2023/09/18 00:04:52;;;;;;;;;;;20.30;71.60;;;;;;5111639;28;19920;-69
2023/09/18 00:07:18;;;;;;;;;;;20.30;71.50;;;;;;5111818;28;19919;-69
2023/09/18 00:09:43;;;;;;;;;;;20.30;71.60;;;;;;5111356;28;20343;-69
2023/09/18 00:12:09;;;;;;;;;;;20.30;71.50;;;;;;5112616;28;19923;-68
2023/09/18 00:14:35;;;;;;;;;;;20.30;71.50;;;;;;5111340;28;20297;-68
2023/09/18 00:17:01;;;;;;;;;;;20.30;71.50;;;;;;5111625;28;19920;-69
2023/09/18 00:19:26;;;;;;;;;;;20.30;71.50;;;;;;5111481;28;19919;-69
2023/09/18 00:21:52;;;;;;;;;;;20.30;71.60;;;;;;5111257;28;20430;-68
2023/09/18 00:24:17;;;;;;;;;;;20.30;71.60;;;;;;5111340;28;19927;-68
2023/09/18 00:26:43;;;;;;;;;;;20.30;71.60;;;;;;5112585;28;19920;-68
2023/09/18 00:29:08;;;;;;;;;;;20.30;71.60;;;;;;5111243;28;19923;-68
2023/09/18 00:31:34;;;;;;;;;;;20.30;71.60;;;;;;5111142;28;19926;-68
2023/09/18 00:33:59;;;;;;;;;;;20.30;71.60;;;;;;5112425;28;19977;-69
2023/09/18 00:36:25;;;;;;;;;;;20.30;71.60;;;;;;5111045;28;19926;-68
2023/09/18 00:38:50;;;;;;;;;;;20.30;71.60;;;;;;5111385;28;19920;-68
2023/09/18 00:41:16;;;;;;;;;;;20.30;71.70;;;;;;5111402;28;20317;-69
2023/09/18 00:43:41;;;;;;;;;;;20.30;71.70;;;;;;5111088;28;19931;-68
2023/09/18 00:46:07;;;;;;;;;;;20.20;71.60;;;;;;5111308;28;19942;-68
2023/09/18 00:48:33;;;;;;;;;;;20.30;71.70;;;;;;5145703;27;19920;-69
2023/09/18 00:50:58;;;;;;;;;;;20.30;71.70;;;;;;5110906;28;20386;-69
2023/09/18 00:53:24;;;;;;;;;;;20.30;71.70;;;;;;5112035;28;20284;-69
2023/09/18 00:55:52;;;;;;;;;;;20.30;71.70;;;;;;5093914;28;19959;-69
2023/09/18 00:58:18;;;;;;;;;;;20.20;71.70;;;;;;5094288;28;20371;-68
2023/09/18 01:00:44;;;;;;;;;;;20.30;71.80;;;;;;5095989;28;19927;-69
2023/09/18 01:03:10;;;;;;;;;;;20.20;71.80;;;;;;5115911;28;20024;-69
2023/09/18 01:05:36;;;;;;;;;;;20.30;71.90;;;;;;5097918;28;20311;-68
2023/09/18 01:08:02;;;;;;;;;;;20.20;71.90;;;;;;5131552;27;19920;-69
2023/09/18 01:10:32;;;;;;;;;;;20.20;72.00;;;;;;5115727;28;19951;-69
2023/09/18 01:13:04;;;;;;;;;;;20.40;71.90;;;;;;5115789;28;19931;-69
2023/09/18 01:15:32;;;;;;;;;;;20.60;71.50;;;;;;5097360;28;19927;-69
2023/09/18 01:17:58;;;;;;;;;;;20.70;71.10;;;;;;5097161;28;19977;-69
2023/09/18 01:20:23;;;;;;;;;;;20.80;70.80;;;;;;5097255;28;19919;-69
2023/09/18 01:22:49;;;;;;;;;;;20.90;70.50;;;;;;5097397;28;19920;-68
2023/09/18 01:25:15;;;;;;;;;;;21.00;70.30;;;;;;5097257;28;20299;-69
2023/09/18 01:27:41;;;;;;;;;;;21.10;70.00;;;;;;5115423;28;19926;-68
2023/09/18 01:30:06;;;;;;;;;;;21.10;69.70;;;;;;5097167;28;20367;-69
2023/09/18 01:32:32;;;;;;;;;;;21.20;69.50;;;;;;5096960;28;19923;-69
2023/09/18 01:35:00;;;;;;;;;;;21.30;69.30;;;;;;5115304;28;19926;-69
2023/09/18 01:37:26;;;;;;;;;;;21.30;69.10;;;;;;5115136;28;19919;-69
2023/09/18 01:39:53;;;;;;;;;;;21.30;69.00;;;;;;5096947;28;19924;-69
2023/09/18 01:42:19;;;;;;;;;;;21.40;68.90;;;;;;5097088;28;20036;-68
2023/09/18 01:44:45;;;;;;;;;;;21.40;68.80;;;;;;5097091;28;20381;-68
2023/09/18 01:47:13;;;;;;;;;;;21.40;68.80;;;;;;5115016;28;19924;-69
2023/09/18 01:49:39;;;;;;;;;;;21.40;68.80;;;;;;5096899;28;20012;-69
2023/09/18 01:52:06;;;;;;;;;;;21.40;68.80;;;;;;5098152;28;19931;-69
2023/09/18 01:54:32;;;;;;;;;;;21.40;68.80;;;;;;5113604;28;19923;-69
2023/09/18 01:56:57;;;;;;;;;;;21.30;68.80;;;;;;5113663;28;19956;-69
2023/09/18 01:59:23;;;;;;;;;;;21.30;68.80;;;;;;5113495;28;19924;-69
2023/09/18 02:01:49;;;;;;;;;;;21.30;68.90;;;;;;5114919;28;20036;-69
2023/09/18 02:04:15;;;;;;;;;;;21.30;69.00;;;;;;5113449;28;19926;-69
2023/09/18 02:06:40;;;;;;;;;;;21.30;69.10;;;;;;5113378;28;19919;-69
2023/09/18 02:09:08;;;;;;;;;;;21.20;69.00;;;;;;5113388;28;19923;-68
2023/09/18 02:11:38;;;;;;;;;;;21.20;69.10;;;;;;5113358;28;20390;-69
2023/09/18 02:14:05;;;;;;;;;;;21.20;69.20;;;;;;5113222;28;19920;-69
2023/09/18 02:16:32;;;;;;;;;;;21.20;69.20;;;;;;5113194;28;19930;-69
2023/09/18 02:18:57;;;;;;;;;;;21.20;69.30;;;;;;5113083;28;20379;-69
2023/09/18 02:21:23;;;;;;;;;;;21.10;69.30;;;;;;5113039;28;19926;-69
2023/09/18 02:23:51;;;;;;;;;;;21.20;69.30;;;;;;5113292;28;19927;-68
2023/09/18 02:26:16;;;;;;;;;;;21.10;69.30;;;;;;5147755;27;19955;-69
2023/09/18 02:28:42;;;;;;;;;;;21.10;69.40;;;;;;5114345;28;20031;-69
2023/09/18 02:31:08;;;;;;;;;;;21.20;69.50;;;;;;5113234;28;19920;-68
2023/09/18 02:33:33;;;;;;;;;;;21.10;69.50;;;;;;5112827;28;19926;-69
2023/09/18 02:35:59;;;;;;;;;;;21.10;69.50;;;;;;5113952;28;19928;-69
2023/09/18 02:38:25;;;;;;;;;;;21.10;69.50;;;;;;5112749;28;19926;-69
2023/09/18 02:40:51;;;;;;;;;;;21.10;69.50;;;;;;5147130;27;19989;-68
2023/09/18 02:43:16;;;;;;;;;;;21.10;69.60;;;;;;5112859;28;19942;-68
2023/09/18 02:45:42;;;;;;;;;;;21.10;69.60;;;;;;5112916;28;19946;-68
2023/09/18 02:48:07;;;;;;;;;;;21.10;69.60;;;;;;5112542;28;19972;-69
2023/09/18 02:50:32;;;;;;;;;;;21.10;69.60;;;;;;5112957;28;19920;-69
2023/09/18 02:52:59;;;;;;;;;;;21.10;69.60;;;;;;5113399;28;19931;-69
2023/09/18 02:55:24;;;;;;;;;;;21.10;69.70;;;;;;5095623;28;20302;-69
2023/09/18 02:57:49;;;;;;;;;;;21.10;69.70;;;;;;5095432;28;19919;-68
2023/09/18 03:00:15;;;;;;;;;;;21.10;69.80;;;;;;5129432;27;19942;-69
2023/09/18 03:02:41;;;;;;;;;;;21.10;69.80;;;;;;5113586;28;19927;-69
2023/09/18 03:05:08;;;;;;;;;;;21.10;69.90;;;;;;5095141;28;20421;-69
2023/09/18 03:07:34;;;;;;;;;;;21.10;69.90;;;;;;5113337;28;19920;-69
2023/09/18 03:09:59;;;;;;;;;;;21.00;69.80;;;;;;5113325;28;19920;-74
2023/09/18 03:12:25;;;;;;;;;;;21.10;69.90;;;;;;5129441;27;20400;-69
2023/09/18 03:14:51;;;;;;;;;;;21.10;69.90;;;;;;5113436;28;20420;-69
2023/09/18 03:17:16;;;;;;;;;;;21.00;70.00;;;;;;5094937;28;20161;-69
2023/09/18 03:19:42;;;;;;;;;;;21.00;69.90;;;;;;5095068;28;20287;-72
2023/09/18 03:22:07;;;;;;;;;;;21.00;69.90;;;;;;5112937;28;19920;-69
2023/09/18 03:24:32;;;;;;;;;;;21.10;70.00;;;;;;5094971;28;19920;-69
2023/09/18 03:26:58;;;;;;;;;;;21.10;70.00;;;;;;5095078;28;19950;-69
2023/09/18 03:29:23;;;;;;;;;;;21.00;70.00;;;;;;5094931;28;19943;-69
2023/09/18 03:31:49;;;;;;;;;;;21.00;70.00;;;;;;5094929;28;19920;-68
2023/09/18 03:34:14;;;;;;;;;;;21.00;70.10;;;;;;5113118;28;19990;-68
2023/09/18 03:36:40;;;;;;;;;;;21.00;70.10;;;;;;5112989;28;19927;-68
2023/09/18 03:39:05;;;;;;;;;;;21.00;70.20;;;;;;5112918;28;19971;-69
2023/09/18 03:41:33;;;;;;;;;;;21.00;70.20;;;;;;5112837;28;20007;-68
2023/09/18 03:44:00;;;;;;;;;;;21.00;70.20;;;;;;5094757;28;19969;-68
2023/09/18 03:46:26;;;;;;;;;;;21.00;70.90;;;;;;5112930;28;19923;-69
2023/09/18 03:48:52;;;;;;;;;;;21.00;70.30;;;;;;5095005;28;19959;-68
2023/09/18 03:51:18;;;;;;;;;;;21.00;70.30;;;;;;5094904;28;19992;-68
2023/09/18 03:53:44;;;;;;;;;;;21.00;70.30;;;;;;5112470;28;19927;-68
2023/09/18 03:56:09;;;;;;;;;;;21.00;70.40;;;;;;5094580;28;20271;-69
2023/09/18 03:58:35;;;;;;;;;;;21.00;70.40;;;;;;5094859;28;19943;-68
2023/09/18 04:01:00;;;;;;;;;;;21.00;70.40;;;;;;5094791;28;19963;-68
2023/09/18 04:03:26;;;;;;;;;;;20.90;70.40;;;;;;5094491;28;20291;-69
2023/09/18 04:05:51;;;;;;;;;;;21.00;70.50;;;;;;5094451;28;19924;-69
2023/09/18 04:08:17;;;;;;;;;;;21.00;70.50;;;;;;5094405;28;19920;-68
2023/09/18 04:10:43;;;;;;;;;;;20.90;70.50;;;;;;5112917;28;19920;-69
2023/09/18 04:13:09;;;;;;;;;;;21.00;70.60;;;;;;5094300;28;20443;-69
2023/09/18 04:15:37;;;;;;;;;;;21.00;70.60;;;;;;5112830;28;19919;-69
2023/09/18 04:18:04;;;;;;;;;;;20.90;70.50;;;;;;5094457;28;19924;-69
2023/09/18 04:20:29;;;;;;;;;;;21.00;70.60;;;;;;5112681;28;19920;-69
2023/09/18 04:23:15;;;;;;;;;;;21.00;70.60;;;;;;5128624;28;19965;-68
2023/09/18 04:25:43;;;;;;;;;;;21.00;70.60;;;;;;5094550;28;19926;-69
2023/09/18 04:28:09;;;;;;;;;;;21.00;70.60;;;;;;5112590;28;20306;-69
2023/09/18 04:30:35;;;;;;;;;;;20.90;70.60;;;;;;5094307;28;19920;-68
2023/09/18 04:33:01;;;;;;;;;;;20.90;70.50;;;;;;5112331;28;20371;-69
2023/09/18 04:35:26;;;;;;;;;;;21.00;70.60;;;;;;5114353;28;19927;-68
2023/09/18 04:37:55;;;;;;;;;;;21.00;70.60;;;;;;5116303;28;19920;-69
2023/09/18 04:40:21;;;;;;;;;;;20.90;70.60;;;;;;5098445;28;20383;-69
2023/09/18 04:42:46;;;;;;;;;;;21.00;70.60;;;;;;5098356;28;20002;-69
2023/09/18 04:45:12;;;;;;;;;;;21.00;70.60;;;;;;5097927;28;20021;-69
2023/09/18 04:47:37;;;;;;;;;;;20.90;70.60;;;;;;5132568;27;20018;-69
2023/09/18 04:50:05;;;;;;;;;;;21.00;70.70;;;;;;5098108;28;19920;-69
2023/09/18 04:52:31;;;;;;;;;;;20.90;70.60;;;;;;5097477;28;19970;-69
2023/09/18 04:54:57;;;;;;;;;;;20.90;70.70;;;;;;5132159;27;19955;-69
2023/09/18 04:57:22;;;;;;;;;;;21.00;70.80;;;;;;5098034;28;19919;-69
2023/09/18 04:59:49;;;;;;;;;;;20.90;70.70;;;;;;5097704;28;19994;-68
2023/09/18 05:02:14;;;;;;;;;;;20.90;70.80;;;;;;5098164;28;19988;-68
2023/09/18 05:04:40;;;;;;;;;;;21.00;70.80;;;;;;5131803;27;19920;-69
2023/09/18 05:07:05;;;;;;;;;;;20.90;70.80;;;;;;5115863;28;19919;-69
2023/09/18 05:09:31;;;;;;;;;;;20.90;70.80;;;;;;5116180;28;20285;-68
2023/09/18 05:11:57;;;;;;;;;;;20.90;70.80;;;;;;5097492;28;19927;-68
2023/09/18 05:14:23;;;;;;;;;;;20.90;70.80;;;;;;5097250;28;19923;-69
2023/09/18 05:16:48;;;;;;;;;;;20.90;70.90;;;;;;5097653;28;20366;-68
2023/09/18 05:19:14;;;;;;;;;;;20.90;70.90;;;;;;5097247;28;19919;-69
2023/09/18 05:21:39;;;;;;;;;;;20.90;70.80;;;;;;5097654;28;19924;-69
2023/09/18 05:24:05;;;;;;;;;;;20.90;70.90;;;;;;5097527;28;20355;-69
2023/09/18 05:26:30;;;;;;;;;;;20.90;70.90;;;;;;5097444;28;20282;-68
2023/09/18 05:28:59;;;;;;;;;;;20.90;70.90;;;;;;5097533;28;20018;-69
2023/09/18 05:31:24;;;;;;;;;;;20.90;70.90;;;;;;5094707;28;20181;-68
2023/09/18 05:33:50;;;;;;;;;;;20.90;70.90;;;;;;5093921;28;20340;-77
2023/09/18 05:36:16;;;;;;;;;;;20.90;70.90;;;;;;5095274;28;20376;-69
2023/09/18 05:38:43;;;;;;;;;;;20.90;71.00;;;;;;5113594;28;19979;-69
2023/09/18 05:41:09;;;;;;;;;;;20.90;71.20;;;;;;5095995;28;19919;-76
2023/09/18 05:43:35;;;;;;;;;;;20.90;71.40;;;;;;5095625;28;20012;-69
2023/09/18 05:46:01;;;;;;;;;;;21.00;71.50;;;;;;5094781;28;20385;-69
2023/09/18 05:48:26;;;;;;;;;;;21.00;71.70;;;;;;5089998;28;19996;-70
2023/09/18 05:50:54;;;;;;;;;;;21.00;71.80;;;;;;5092412;28;19920;-69
2023/09/18 05:53:19;;;;;;;;;;;21.00;71.90;;;;;;5090873;28;20445;-69
2023/09/18 05:55:45;;;;;;;;;;;21.00;72.00;;;;;;5104653;28;20014;-70
2023/09/18 05:58:10;;;;;;;;;;;21.00;72.10;;;;;;5106250;28;20056;-70
2023/09/18 06:00:36;;;;;;;;;;;21.00;72.30;;;;;;5098871;27;19920;-70
2023/09/18 06:03:02;;;;;;;;;;;21.00;72.40;;;;;;5104516;28;19920;-70
2023/09/18 06:05:30;;;;;;;;;;;21.10;72.40;;;;;;5102029;28;19927;-69
2023/09/18 06:07:56;;;;;;;;;;;21.10;72.50;;;;;;5111378;28;19926;-70
2023/09/18 06:10:21;;;;;;;;;;;21.00;72.50;;;;;;5108847;28;19927;-70
2023/09/18 06:12:47;;;;;;;;;;;21.00;72.60;;;;;;5109118;28;19949;-70
2023/09/18 06:15:14;;;;;;;;;;;21.00;72.70;;;;;;5107350;28;20386;-69
2023/09/18 06:17:40;;;;;;;;;;;21.00;72.60;;;;;;5107826;28;19935;-69
2023/09/18 06:20:09;;;;;;;;;;;21.00;72.80;;;;;;5110004;28;19926;-69
2023/09/18 06:22:37;;;;;;;;;;;21.10;73.10;;;;;;5108971;28;19920;-70
2023/09/18 06:25:03;;;;;;;;;;;21.10;73.10;;;;;;5108218;28;19919;-70
2023/09/18 06:27:28;;;;;;;;;;;21.10;73.20;;;;;;5113572;27;19976;-70
2023/09/18 06:29:54;;;;;;;;;;;21.10;73.20;;;;;;5110231;28;20368;-70
2023/09/18 06:32:19;;;;;;;;;;;21.10;73.20;;;;;;5103103;28;20006;-69
2023/09/18 06:34:47;;;;;;;;;;;21.00;73.20;;;;;;5094833;28;19924;-69
2023/09/18 06:37:12;;;;;;;;;;;21.10;73.30;;;;;;5094206;28;19928;-67
2023/09/18 06:39:38;;;;;;;;;;;21.10;73.40;;;;;;5098273;28;20363;-67
2023/09/18 06:42:04;;;;;;;;;;;21.10;73.50;;;;;;5095940;28;19920;-68
2023/09/18 06:44:29;;;;;;;;;;;21.10;73.60;;;;;;5099345;28;19924;-68
2023/09/18 06:46:55;;;;;;;;;;;21.00;73.60;;;;;;5096702;28;20090;-67
2023/09/18 06:49:20;;;;;;;;;;;21.10;73.70;;;;;;5096617;28;19924;-67
2023/09/18 06:51:46;;;;;;;;;;;21.00;73.80;;;;;;5094851;28;19931;-70
2023/09/18 06:54:11;;;;;;;;;;;21.00;73.90;;;;;;5100780;28;20014;-69
2023/09/18 06:56:37;;;;;;;;;;;21.00;74.00;;;;;;5071561;28;19924;-70
2023/09/18 06:59:02;;;;;;;;;;;21.10;74.20;;;;;;5085519;28;19950;-73
2023/09/18 07:01:28;;;;;;;;;;;21.00;74.20;;;;;;5065895;28;19932;-74
2023/09/18 07:03:53;;;;;;;;;;;21.10;74.40;;;;;;5071232;28;19923;-75
2023/09/18 07:06:20;;;;;;;;;;;21.10;74.50;;;;;;5095251;28;19932;-82
2023/09/18 07:08:47;;;;;;;;;;;21.10;74.50;;;;;;5073543;28;20084;-75
2023/09/18 07:11:13;;;;;;;;;;;21.20;74.60;;;;;;5076587;28;19953;-79
2023/09/18 07:13:38;;;;;;;;;;;21.20;74.80;;;;;;5077125;28;20384;-71
2023/09/18 07:16:05;;;;;;;;;;;21.20;74.80;;;;;;5073517;28;19924;-74
2023/09/18 07:18:31;;;;;;;;;;;21.20;75.00;;;;;;5071871;27;19931;-73
2023/09/18 07:20:56;;;;;;;;;;;21.20;75.20;;;;;;5090327;28;20407;-75
2023/09/18 07:23:22;;;;;;;;;;;21.30;75.40;;;;;;5078670;28;19923;-75
2023/09/18 07:25:48;;;;;;;;;;;21.30;75.50;;;;;;5094332;27;19924;-72
2023/09/18 07:28:17;;;;;;;;;;;21.20;75.60;;;;;;5081424;28;19924;-71
2023/09/18 07:30:43;;;;;;;;;;;21.20;75.60;;;;;;5102781;27;20034;-70
2023/09/18 07:33:10;;;;;;;;;;;21.20;75.60;;;;;;5079286;28;19935;-72
2023/09/18 07:35:35;;;;;;;;;;;21.20;75.60;;;;;;5091917;28;19928;-71
2023/09/18 07:38:01;;;;;;;;;;;21.30;75.70;;;;;;5106270;27;19946;-72
2023/09/18 07:40:26;;;;;;;;;;;21.30;75.70;;;;;;5105288;27;20426;-72
2023/09/18 07:42:52;;;;;;;;;;;21.20;75.70;;;;;;5073342;28;20691;-72
2023/09/18 07:45:18;;;;;;;;;;;21.20;75.60;;;;;;5072829;28;19927;-73
2023/09/18 07:47:43;;;;;;;;;;;21.20;75.70;;;;;;5074660;28;19923;-72
2023/09/18 07:50:09;;;;;;;;;;;21.20;75.70;;;;;;5074657;28;19963;-74
2023/09/18 07:52:35;;;;;;;;;;;21.20;75.80;;;;;;5094064;27;20018;-71
2023/09/18 07:55:00;;;;;;;;;;;21.10;75.80;;;;;;5095221;28;20167;-73
2023/09/18 07:57:28;;;;;;;;;;;21.20;75.90;;;;;;5091798;28;20048;-72
2023/09/18 07:59:53;;;;;;;;;;;21.20;75.90;;;;;;5095381;28;19923;-73
2023/09/18 08:02:19;;;;;;;;;;;21.20;76.10;;;;;;5124803;27;19938;-69
2023/09/18 08:04:45;;;;;;;;;;;21.10;76.10;;;;;;5096948;28;19928;-69
2023/09/18 08:07:12;;;;;;;;;;;21.10;76.20;;;;;;5091344;28;19963;-69
2023/09/18 08:09:38;;;;;;;;;;;21.10;76.20;;;;;;5101310;27;19982;-69
2023/09/18 08:12:04;;;;;;;;;;;21.10;76.20;;;;;;5128639;27;19920;-68
2023/09/18 08:14:30;;;;;;;;;;;21.10;76.20;;;;;;5099019;28;19935;-69
2023/09/18 08:16:57;;;;;;;;;;;21.10;76.10;;;;;;5127982;27;19930;-68
2023/09/18 08:19:23;;;;;;;;;;;21.10;76.10;;;;;;5094056;27;19928;-67
2023/09/18 08:21:49;;;;;;;;;;;21.00;76.10;;;;;;5127595;27;19935;-69
2023/09/18 08:24:14;;;;;;;;;;;21.00;76.10;;;;;;5095732;28;19920;-68
2023/09/18 08:26:40;;;;;;;;;;;21.00;76.00;;;;;;5095695;28;20015;-68
2023/09/18 08:29:05;;;;;;;;;;;21.00;76.10;;;;;;5092418;28;19982;-68
2023/09/18 08:31:31;;;;;;;;;;;21.00;76.30;;;;;;5099702;28;19923;-69
2023/09/18 08:33:57;;;;;;;;;;;21.00;76.50;;;;;;5097600;28;20340;-69
2023/09/18 08:36:23;;;;;;;;;;;21.00;76.60;;;;;;5125608;27;19928;-69
2023/09/18 08:38:48;;;;;;;;;;;21.00;76.70;;;;;;5129252;27;20031;-69
2023/09/18 08:41:14;;;;;;;;;;;21.00;76.70;;;;;;5092918;28;19919;-69
2023/09/18 08:43:42;;;;;;;;;;;21.00;76.50;;;;;;5125574;27;20015;-69
2023/09/18 08:46:08;;;;;;;;;;;21.00;76.50;;;;;;5092464;28;19930;-72
2023/09/18 08:48:34;;;;;;;;;;;21.00;76.50;;;;;;5086382;28;19924;-72
2023/09/18 08:51:02;;;;;;;;;;;21.10;76.50;;;;;;5083737;28;19949;-72
2023/09/18 08:53:29;;;;;;;;;;;21.00;76.70;;;;;;5087927;28;20630;-71
2023/09/18 08:55:58;;;;;;;;;;;21.10;77.10;;;;;;5093555;28;19924;-72
2023/09/18 08:58:24;;;;;;;;;;;21.10;77.30;;;;;;5092152;28;19923;-73
2023/09/18 09:00:50;;;;;;;;;;;21.10;77.60;;;;;;5097443;28;19951;-71
2023/09/18 09:03:15;;;;;;;;;;;21.10;77.70;;;;;;5093397;28;20006;-70
2023/09/18 09:05:41;;;;;;;;;;;21.10;77.90;;;;;;5096403;27;19924;-71
2023/09/18 09:08:06;;;;;;;;;;;21.10;78.00;;;;;;5096513;28;20112;-70
2023/09/18 09:10:32;;;;;;;;;;;21.10;78.10;;;;;;5093568;28;20047;-71
2023/09/18 09:12:58;;;;;;;;;;;21.10;78.30;;;;;;5091688;27;19954;-70
2023/09/18 09:15:26;;;;;;;;;;;21.10;78.40;;;;;;5089136;27;19958;-69
2023/09/18 09:17:52;;;;;;;;;;;21.10;78.40;;;;;;5090204;28;20390;-68
2023/09/18 09:20:18;;;;;;;;;;;21.20;78.50;;;;;;5088609;28;20400;-69
2023/09/18 09:22:44;;;;;;;;;;;21.20;78.60;;;;;;5095024;27;19920;-68
2023/09/18 09:25:26;;;;;;;;;;;21.20;78.60;;;;;;5094948;28;20409;-68
2023/09/18 09:27:53;;;;;;;;;;;21.20;78.80;;;;;;5126655;27;19920;-68
2023/09/18 09:30:20;;;;;;;;;;;21.20;78.60;;;;;;5094147;27;19951;-69
2023/09/18 09:32:53;;;;;;;;;;;21.20;78.60;;;;;;5125685;27;20026;-69
2023/09/18 09:35:20;;;;;;;;;;;21.20;78.60;;;;;;5096842;27;19985;-69
2023/09/18 09:37:45;;;;;;;;;;;21.20;78.50;;;;;;5091302;28;19924;-69
2023/09/18 09:40:14;;;;;;;;;;;21.20;78.50;;;;;;5092265;28;19951;-78
2023/09/18 09:42:40;;;;;;;;;;;21.10;78.50;;;;;;5102528;27;20404;-70
2023/09/18 09:45:11;;;;;;;;;;;21.10;78.50;;;;;;5092266;27;19932;-70
2023/09/18 09:47:37;;;;;;;;;;;21.10;78.50;;;;;;5095475;27;19959;-70
2023/09/18 09:50:05;;;;;;;;;;;21.10;78.40;;;;;;5092779;28;19987;-71
2023/09/18 09:52:33;;;;;;;;;;;21.10;78.50;;;;;;5096183;28;19943;-69
2023/09/18 09:54:58;;;;;;;;;;;21.00;78.40;;;;;;5097647;28;19950;-74
2023/09/18 09:57:24;;;;;;;;;;;21.10;78.10;;;;;;5092539;28;19924;-72
2023/09/18 09:59:49;;;;;;;;;;;21.10;78.20;;;;;;5126515;27;19923;-71
2023/09/18 10:02:19;;;;;;;;;;;21.10;78.50;;;;;;5092442;28;20018;-73
2023/09/18 10:04:48;;;;;;;;;;;21.20;78.60;;;;;;5095444;28;19920;-69
2023/09/18 10:07:15;;;;;;;;;;;21.20;78.70;;;;;;5093323;28;20177;-70
2023/09/18 10:09:42;;;;;;;;;;;21.20;78.90;;;;;;5093644;28;19924;-71
2023/09/18 10:12:11;;;;;;;;;;;21.30;78.90;;;;;;5118335;27;19928;-71
2023/09/18 10:14:38;;;;;;;;;;;21.30;78.90;;;;;;5093136;27;19920;-73
2023/09/18 10:17:08;;;;;;;;;;;21.40;78.90;;;;;;5121308;27;19958;-72
2023/09/18 10:19:53;;;;;;;;;;;21.40;79.00;;;;;;5094405;28;20019;-73
2023/09/18 10:22:42;;;;;;;;;;;21.40;79.00;;;;;;5090398;28;19978;-73
2023/09/18 10:27:53;;;;;;;;;;;21.50;79.10;;;;;;5085126;27;19927;-76
2023/09/18 10:30:22;;;;;;;;;;;21.50;79.30;;;;;;5079183;28;19967;-73
2023/09/18 10:32:49;;;;;;;;;;;21.50;79.30;;;;;;5066389;28;20064;-73
2023/09/18 10:35:15;;;;;;;;;;;21.50;79.20;;;;;;5096341;28;19920;-73
2023/09/18 10:37:42;;;;;;;;;;;21.50;79.40;;;;;;5072885;28;20317;-73
2023/09/18 10:40:08;;;;;;;;;;;21.60;79.50;;;;;;5070785;28;19965;-73
2023/09/18 10:42:37;;;;;;;;;;;21.60;79.50;;;;;;5093571;28;19924;-74
2023/09/18 10:45:04;;;;;;;;;;;21.60;79.50;;;;;;5057356;28;19928;-76
2023/09/18 10:47:30;;;;;;;;;;;21.50;79.60;;;;;;5062945;28;19939;-73
2023/09/18 10:49:55;;;;;;;;;;;21.60;79.90;;;;;;5079502;28;19924;-78
2023/09/18 10:52:21;;;;;;;;;;;21.60;80.40;;;;;;5069736;28;19923;-74
2023/09/18 10:54:49;;;;;;;;;;;21.70;80.70;;;;;;5067752;28;19970;-77
2023/09/18 10:57:15;;;;;;;;;;;21.60;80.70;;;;;;5075346;28;19928;-73
2023/09/18 10:59:47;;;;;;;;;;;21.70;80.90;;;;;;5065924;28;19924;-77
2023/09/18 11:02:15;;;;;;;;;;;21.70;81.60;;;;;;5064252;28;19928;-73
2023/09/18 11:04:41;;;;;;;;;;;21.70;80.90;;;;;;5059675;28;19932;-75
2023/09/18 11:07:07;;;;;;;;;;;21.70;80.80;;;;;;5080884;28;19957;-76
2023/09/18 11:09:40;;;;;;;;;;;21.70;80.70;;;;;;5062951;28;19924;-78
2023/09/18 11:12:06;;;;;;;;;;;21.80;80.30;;;;;;5061356;28;19928;-74
2023/09/18 11:14:52;;;;;;;;;;;21.80;80.60;;;;;;5076846;28;20100;-74
2023/09/18 11:17:34;;;;;;;;;;;21.80;80.30;;;;;;5093226;28;19969;-73
2023/09/18 11:20:09;;;;;;;;;;;21.80;80.10;;;;;;5070679;28;19925;-74
2023/09/18 11:22:36;;;;;;;;;;;21.80;80.10;;;;;;5054306;28;19923;-74
2023/09/18 11:25:21;;;;;;;;;;;21.80;80.40;;;;;;5086267;28;19928;-79
2023/09/18 11:27:55;;;;;;;;;;;21.80;80.10;;;;;;5069077;28;20363;-73
2023/09/18 11:30:21;;;;;;;;;;;21.80;80.10;;;;;;5075842;28;19924;-74
2023/09/18 11:32:47;;;;;;;;;;;21.80;80.00;;;;;;5089359;28;19920;-73
2023/09/18 11:35:13;;;;;;;;;;;21.90;79.90;;;;;;5073730;28;20414;-75
2023/09/18 11:37:39;;;;;;;;;;;21.80;79.70;;;;;;5066630;28;19924;-74
2023/09/18 11:40:08;;;;;;;;;;;21.80;79.60;;;;;;5059872;28;19931;-75
2023/09/18 11:42:33;;;;;;;;;;;21.80;79.50;;;;;;5060321;28;20015;-74
2023/09/18 11:44:59;;;;;;;;;;;21.80;79.40;;;;;;5057579;28;20453;-75
2023/09/18 11:47:27;;;;;;;;;;;21.90;79.30;;;;;;5078129;28;19924;-75
2023/09/18 11:49:56;;;;;;;;;;;21.80;79.20;;;;;;5057514;28;19928;-74
2023/09/18 11:52:23;;;;;;;;;;;21.90;79.20;;;;;;5045829;28;20077;-77
2023/09/18 11:54:48;;;;;;;;;;;21.80;79.10;;;;;;5061339;28;19925;-73
2023/09/18 11:57:14;;;;;;;;;;;21.80;79.10;;;;;;5045086;28;20379;-74
2023/09/18 11:59:42;;;;;;;;;;;21.80;79.10;;;;;;5072667;28;19939;-72
2023/09/18 12:02:09;;;;;;;;;;;21.80;79.00;;;;;;5074004;28;20011;-73
2023/09/18 12:04:35;;;;;;;;;;;21.90;78.90;;;;;;5058337;28;19963;-71
2023/09/18 12:07:03;;;;;;;;;;;21.90;78.80;;;;;;5074411;28;20139;-73
2023/09/18 12:09:30;;;;;;;;;;;21.90;78.80;;;;;;5057835;28;20011;-74
2023/09/18 12:11:57;;;;;;;;;;;21.90;78.80;;;;;;5055895;28;20007;-74
2023/09/18 12:14:22;;;;;;;;;;;21.90;78.80;;;;;;5074274;28;20302;-74
2023/09/18 12:16:50;;;;;;;;;;;21.90;78.70;;;;;;5051346;28;19924;-80
2023/09/18 12:19:17;;;;;;;;;;;21.90;78.60;;;;;;5044583;28;19957;-75
2023/09/18 12:21:47;;;;;;;;;;;21.90;78.70;;;;;;5052150;28;19920;-75
2023/09/18 12:24:14;;;;;;;;;;;21.90;78.80;;;;;;5052509;28;20437;-74
2023/09/18 12:26:40;;;;;;;;;;;21.90;78.60;;;;;;5064204;28;19939;-75
2023/09/18 12:29:07;;;;;;;;;;;21.90;78.50;;;;;;5055325;28;19923;-75
2023/09/18 12:31:33;;;;;;;;;;;21.90;78.50;;;;;;5047397;28;19966;-75
2023/09/18 12:33:59;;;;;;;;;;;21.90;78.50;;;;;;5032355;28;20010;-73
2023/09/18 12:36:25;;;;;;;;;;;21.90;78.60;;;;;;5033046;28;19932;-72
2023/09/18 12:38:58;;;;;;;;;;;21.90;78.60;;;;;;5042873;28;20392;-72
2023/09/18 12:41:25;;;;;;;;;;;21.90;78.80;;;;;;5042243;28;19924;-72
2023/09/18 12:43:51;;;;;;;;;;;22.00;78.90;;;;;;5053395;28;19950;-74
2023/09/18 12:46:18;;;;;;;;;;;21.90;79.10;;;;;;5059578;28;19928;-75
2023/09/18 12:48:46;;;;;;;;;;;21.90;79.10;;;;;;5055097;28;20427;-74
2023/09/18 12:51:13;;;;;;;;;;;22.00;78.90;;;;;;5053526;28;19929;-74
2023/09/18 12:53:39;;;;;;;;;;;22.00;78.90;;;;;;5053321;28;19924;-77
2023/09/18 12:58:46;;;;;;;;;;;22.10;79.20;;;;;;5041074;28;19965;-70
2023/09/18 13:01:11;;;;;;;;;;;22.10;79.20;;;;;;5044975;28;20392;-70
2023/09/18 13:03:45;;;;;;;;;;;22.10;79.20;;;;;;5049654;28;19925;-71
2023/09/18 13:06:11;;;;;;;;;;;22.10;79.10;;;;;;5070760;28;19978;-72
2023/09/18 13:08:37;;;;;;;;;;;22.10;78.90;;;;;;5051038;28;20005;-71
2023/09/18 13:11:04;;;;;;;;;;;22.10;78.70;;;;;;5060545;28;20375;-71
2023/09/18 13:13:30;;;;;;;;;;;22.10;78.60;;;;;;5071298;28;20416;-71
2023/09/18 13:15:59;;;;;;;;;;;22.10;78.40;;;;;;5061658;28;19967;-71
2023/09/18 13:18:25;;;;;;;;;;;22.10;78.10;;;;;;5073990;28;20375;-71
2023/09/18 13:20:51;;;;;;;;;;;22.10;78.00;;;;;;5078430;28;19936;-70
2023/09/18 13:23:17;;;;;;;;;;;22.10;77.80;;;;;;5069278;28;20418;-70
2023/09/18 13:25:44;;;;;;;;;;;22.10;77.60;;;;;;5065939;28;20341;-71
2023/09/18 13:28:11;;;;;;;;;;;22.10;77.50;;;;;;5079970;28;19921;-70
2023/09/18 13:30:39;;;;;;;;;;;22.10;77.40;;;;;;5080484;28;20399;-70
2023/09/18 13:33:06;;;;;;;;;;;22.10;77.30;;;;;;5064564;28;19985;-73
2023/09/18 13:35:32;;;;;;;;;;;22.10;77.30;;;;;;5056919;28;20280;-73
2023/09/18 13:37:58;;;;;;;;;;;22.20;77.40;;;;;;5062692;28;20342;-77
2023/09/18 13:40:23;;;;;;;;;;;22.20;78.00;;;;;;5048814;28;19928;-74
2023/09/18 13:42:49;;;;;;;;;;;22.20;77.10;;;;;;5062486;28;19964;-72
2023/09/18 13:45:16;;;;;;;;;;;22.20;77.20;;;;;;5070748;28;19920;-73
2023/09/18 13:47:41;;;;;;;;;;;22.20;76.80;;;;;;5067580;28;19971;-73
2023/09/18 13:50:08;;;;;;;;;;;22.20;76.70;;;;;;5085408;28;19956;-74
2023/09/18 13:52:34;;;;;;;;;;;22.20;77.40;;;;;;5073883;28;20455;-74
2023/09/18 13:55:00;;;;;;;;;;;22.20;76.80;;;;;;5070067;28;20039;-71
2023/09/18 13:57:25;;;;;;;;;;;22.30;76.90;;;;;;5067495;28;19929;-73
2023/09/18 13:59:51;;;;;;;;;;;22.20;77.70;;;;;;5081184;28;19932;-74
2023/09/18 14:02:17;;;;;;;;;;;22.30;76.90;;;;;;5070921;28;19928;-72
2023/09/18 14:04:43;;;;;;;;;;;22.30;76.80;;;;;;5083682;28;19925;-74
2023/09/18 14:07:09;;;;;;;;;;;22.30;76.70;;;;;;5060996;28;19927;-73
2023/09/18 14:09:35;;;;;;;;;;;22.30;76.70;;;;;;5078712;28;19921;-74
2023/09/18 14:12:02;;;;;;;;;;;22.30;76.60;;;;;;5052097;28;19931;-76
2023/09/18 14:14:28;;;;;;;;;;;22.30;76.50;;;;;;5054749;28;19929;-74
2023/09/18 14:16:53;;;;;;;;;;;22.30;76.40;;;;;;5060615;28;19931;-75